Time;durP1;ratioP1;P1;durP2;ratioP2;P2;SDS_P1;SDS_P2;PMS_P1;PMS_P2;Temp;Humidity;BMP_temperature;BMP_pressure;BME280_temperature;BME280_humidity;BME280_pressure;Samples;Min_cycle;Max_cycle;Signal;HPM_P1;HPM_P2
2022/11/05 00:10:36;;;;;;;4.97;3.92;;;10.70;99.90;;;;;;5013294;28;20064;-46
2022/11/05 00:18:30;;;;;;;7.00;4.45;;;10.80;99.90;;;;;;5012951;28;20426;-50
2022/11/05 00:20:56;;;;;;;5.57;3.95;;;10.70;99.90;;;;;;5012279;28;20029;-47
2022/11/05 00:26:10;;;;;;;5.05;4.10;;;10.70;99.90;;;;;;5011769;28;20410;-44
2022/11/05 00:28:36;;;;;;;6.93;4.03;;;10.80;99.90;;;;;;5011556;28;20033;-49
2022/11/05 00:31:04;;;;;;;4.82;4.10;;;10.70;99.90;;;;;;5011769;28;20034;-47
2022/11/05 00:33:31;;;;;;;4.30;3.90;;;10.70;99.90;;;;;;5011530;28;20061;-47
2022/11/05 00:35:56;;;;;;;7.55;4.78;;;10.70;99.90;;;;;;5011574;28;20497;-47
2022/11/05 00:38:22;;;;;;;5.47;3.72;;;10.70;99.90;;;;;;5011317;28;20033;-49
2022/11/05 00:40:48;;;;;;;5.90;4.57;;;10.70;99.90;;;;;;5012148;28;20112;-51
2022/11/05 00:45:58;;;;;;;4.93;4.43;;;10.70;99.90;;;;;;5018513;28;20040;-51
2022/11/05 00:51:08;;;;;;;6.30;4.32;;;10.70;99.90;;;;;;5018139;28;20136;-47
2022/11/05 00:53:34;;;;;;;5.57;4.18;;;10.70;99.90;;;;;;5017986;28;20026;-47
2022/11/05 00:55:59;;;;;;;8.52;4.95;;;10.70;99.90;;;;;;5017981;28;20029;-47
2022/11/05 00:58:27;;;;;;;9.73;5.70;;;10.70;99.90;;;;;;5017918;28;20033;-48
2022/11/05 01:00:57;;;;;;;5.53;4.45;;;10.70;99.90;;;;;;5018017;28;20105;-47
2022/11/05 01:03:35;;;;;;;8.52;4.82;;;10.70;99.90;;;;;;5017704;28;20022;-49
2022/11/05 01:06:08;;;;;;;7.50;4.22;;;10.70;99.90;;;;;;5018069;28;20030;-49
2022/11/05 01:08:34;;;;;;;5.47;4.47;;;10.70;99.90;;;;;;5017885;28;20038;-48
2022/11/05 01:11:08;;;;;;;4.95;3.65;;;10.70;99.90;;;;;;5017974;28;20080;-48
2022/11/05 01:13:33;;;;;;;4.90;4.25;;;10.70;99.90;;;;;;5016295;28;20397;-49
2022/11/05 01:16:04;;;;;;;8.07;4.35;;;10.70;99.90;;;;;;5017623;28;20022;-47
2022/11/05 01:18:30;;;;;;;4.47;3.75;;;10.70;99.90;;;;;;5017921;28;20018;-49
2022/11/05 01:20:55;;;;;;;7.45;4.57;;;10.70;99.90;;;;;;5018013;28;20057;-50
2022/11/05 01:23:21;;;;;;;4.10;3.70;;;10.60;99.90;;;;;;5017387;28;20478;-49
2022/11/05 01:25:46;;;;;;;6.82;3.72;;;10.60;99.90;;;;;;5016522;28;20033;-47
2022/11/05 01:28:12;;;;;;;4.38;3.70;;;10.60;99.90;;;;;;5017873;28;20033;-46
2022/11/05 01:30:37;;;;;;;6.53;4.00;;;10.60;99.90;;;;;;5018479;28;20661;-48
2022/11/05 01:33:03;;;;;;;5.90;3.85;;;10.60;99.90;;;;;;5017514;28;20033;-47
2022/11/05 01:35:28;;;;;;;4.25;3.22;;;10.60;99.90;;;;;;5016336;28;20018;-48
2022/11/05 01:37:54;;;;;;;4.05;3.65;;;10.60;99.90;;;;;;5017563;28;20470;-50
2022/11/05 01:40:21;;;;;;;4.55;4.15;;;10.60;99.90;;;;;;5017816;28;20026;-47
2022/11/05 01:42:47;;;;;;;3.90;3.20;;;10.60;99.90;;;;;;5017365;28;20097;-49
2022/11/05 01:45:15;;;;;;;3.75;3.45;;;10.50;99.90;;;;;;5018014;28;20521;-47
2022/11/05 01:48:03;;;;;;;7.03;4.05;;;10.50;99.90;;;;;;5017536;28;20053;-49
2022/11/05 01:50:38;;;;;;;5.22;3.75;;;10.50;99.90;;;;;;5015722;28;20034;-51
2022/11/05 01:53:42;;;;;;;4.13;3.67;;;10.50;99.90;;;;;;5014724;28;20022;-48
2022/11/05 01:56:17;;;;;;;4.65;3.42;;;10.60;99.90;;;;;;4983974;28;20065;-49
2022/11/05 01:58:49;;;;;;;4.28;3.55;;;10.60;99.90;;;;;;5014669;28;20550;-47
2022/11/05 02:01:15;;;;;;;6.25;3.70;;;10.50;99.90;;;;;;5014536;28;20034;-47
2022/11/05 02:03:43;;;;;;;5.00;4.13;;;10.60;99.90;;;;;;5014114;28;20492;-49
2022/11/05 02:06:09;;;;;;;3.92;3.42;;;10.60;99.90;;;;;;5014295;28;20026;-49
2022/11/05 02:09:01;;;;;;;6.70;3.90;;;10.60;99.90;;;;;;5014308;28;20022;-50
2022/11/05 02:11:27;;;;;;;6.35;4.40;;;10.50;99.90;;;;;;5014391;28;20030;-47
2022/11/05 02:13:53;;;;;;;5.15;4.30;;;10.50;99.90;;;;;;5014030;28;20477;-50
2022/11/05 02:16:54;;;;;;;6.63;4.40;;;10.50;99.90;;;;;;5014145;28;20041;-50
2022/11/05 02:19:54;;;;;;;8.00;4.90;;;10.50;99.90;;;;;;5014083;28;20022;-46
2022/11/05 02:23:00;;;;;;;7.85;4.88;;;10.50;99.90;;;;;;5013798;28;20025;-48
2022/11/05 02:25:44;;;;;;;;;;;10.50;99.90;;;;;;5014428;28;20041;-51
2022/11/05 02:28:36;;;;;;;10.70;5.25;;;10.50;99.90;;;;;;5012624;28;20289;-48
2022/11/05 02:31:14;;;;;;;8.05;6.30;;;10.50;99.90;;;;;;5014178;28;20533;-48
2022/11/05 02:34:02;;;;;;;6.32;5.60;;;10.50;99.90;;;;;;5013499;28;20133;-49
2022/11/05 02:36:32;;;;;;;9.95;7.22;;;10.50;99.90;;;;;;5012219;28;20046;-52
2022/11/05 02:39:24;;;;;;;10.90;6.35;;;10.50;99.90;;;;;;5012176;28;20018;-48
2022/11/05 02:42:06;;;;;;;10.15;6.85;;;10.50;99.90;;;;;;5006469;28;20038;-49
2022/11/05 02:44:44;;;;;;;10.63;7.43;;;10.50;99.90;;;;;;5013386;28;20065;-48
2022/11/05 02:47:35;;;;;;;9.07;7.45;;;10.50;99.90;;;;;;5013308;28;20053;-49
2022/11/05 02:50:06;;;;;;;10.15;7.38;;;10.40;99.90;;;;;;5013372;28;20026;-46
2022/11/05 02:52:50;;;;;;;10.25;8.25;;;10.50;99.90;;;;;;5013133;28;20448;-46
2022/11/05 02:55:26;;;;;;;11.93;9.48;;;10.40;99.90;;;;;;5013170;28;20052;-50
2022/11/05 02:57:51;;;;;;;14.40;9.70;;;10.50;99.90;;;;;;5012017;28;20080;-49
2022/11/05 03:00:38;;;;;;;14.32;9.65;;;10.50;99.90;;;;;;5013341;28;20034;-51
2022/11/05 03:03:16;;;;;;;14.77;10.23;;;10.50;99.90;;;;;;5012953;28;20022;-46
2022/11/05 03:06:11;;;;;;;16.10;10.25;;;10.40;99.90;;;;;;5012951;28;20682;-46
2022/11/05 03:08:45;;;;;;;13.43;10.35;;;10.50;99.90;;;;;;5011768;28;20034;-50
2022/11/05 03:11:18;;;;;;;16.67;10.70;;;10.50;99.90;;;;;;5013014;28;20022;-51
2022/11/05 03:14:17;;;;;;;15.60;11.73;;;10.40;99.90;;;;;;5012659;28;20124;-47
2022/11/05 03:16:55;;;;;;;13.50;10.70;;;10.40;99.90;;;;;;5011704;28;20037;-50
2022/11/05 03:19:46;;;;;;;15.23;10.75;;;10.40;99.90;;;;;;5012928;28;20029;-50
2022/11/05 03:22:23;;;;;;;16.13;11.88;;;10.30;99.90;;;;;;5012639;28;20032;-53
2022/11/05 03:24:56;;;;;;;14.95;10.77;;;10.30;99.90;;;;;;5012723;28;20481;-49
2022/11/05 03:27:27;;;;;;;20.50;11.85;;;10.30;99.90;;;;;;5012800;28;20040;-53
2022/11/05 03:29:59;;;;;;;17.05;10.82;;;10.30;99.90;;;;;;5012716;28;20105;-50
2022/11/05 03:32:28;;;;;;;18.27;12.07;;;10.30;99.90;;;;;;5012529;28;20024;-51
2022/11/05 03:35:10;;;;;;;14.80;11.30;;;10.30;99.90;;;;;;5012363;28;20025;-50
2022/11/05 03:37:40;;;;;;;16.67;11.23;;;10.30;99.90;;;;;;5012340;28;20018;-51
2022/11/05 03:40:07;;;;;;;15.40;12.10;;;10.30;99.90;;;;;;5012585;28;20028;-50
2022/11/05 03:42:37;;;;;;;18.73;13.07;;;10.30;99.90;;;;;;5012303;28;20037;-48
2022/11/05 03:45:11;;;;;;;17.92;13.35;;;10.30;99.90;;;;;;5012343;28;20502;-50
2022/11/05 03:47:39;;;;;;;20.52;14.30;;;10.30;99.90;;;;;;5012429;28;20052;-48
2022/11/05 03:50:14;;;;;;;23.42;15.30;;;10.40;99.90;;;;;;5012350;28;20061;-50
2022/11/05 03:52:50;;;;;;;26.30;16.27;;;10.30;99.90;;;;;;5012193;28;20138;-47
2022/11/05 03:55:15;;;;;;;27.65;17.20;;;10.40;99.90;;;;;;5012148;28;20041;-51
2022/11/05 03:57:48;;;;;;;24.58;17.27;;;10.40;99.90;;;;;;5012188;28;20030;-47
2022/11/05 04:00:14;;;;;;;29.15;17.52;;;10.40;99.90;;;;;;5012109;28;20116;-50
2022/11/05 04:02:40;;;;;;;25.25;16.63;;;10.40;99.90;;;;;;5011929;28;20108;-48
2022/11/05 04:05:06;;;;;;;24.08;15.45;;;10.40;99.90;;;;;;5010846;28;20070;-50
2022/11/05 04:18:28;;;;;;;19.17;12.20;;;10.20;99.90;;;;;;5011932;28;20548;-52
2022/11/05 04:26:22;;;;;;;17.52;9.90;;;10.20;99.90;;;;;;5012767;28;20045;-47
2022/11/05 04:31:33;;;;;;;16.65;10.77;;;10.00;99.90;;;;;;5011779;28;20033;-50
2022/11/05 04:33:59;;;;;;;12.90;10.25;;;10.00;99.90;;;;;;5011539;28;20401;-48
2022/11/05 04:36:24;;;;;;;15.68;10.63;;;10.00;99.90;;;;;;5011647;28;20022;-48
2022/11/05 04:38:50;;;;;;;22.75;10.45;;;10.00;99.90;;;;;;5010981;28;20029;-49
2022/11/05 04:41:16;;;;;;;13.60;10.88;;;10.00;99.90;;;;;;5011614;28;20523;-47
2022/11/05 04:43:42;;;;;;;16.42;10.60;;;10.00;99.90;;;;;;5011299;28;20082;-51
2022/11/05 04:46:08;;;;;;;13.60;10.00;;;10.00;99.90;;;;;;5011799;28;20034;-49
2022/11/05 04:48:34;;;;;;;11.48;8.63;;;10.00;99.90;;;;;;5011464;28;20022;-54
2022/11/05 04:51:00;;;;;;;14.60;8.57;;;10.00;99.90;;;;;;5011538;28;20109;-51
2022/11/05 04:53:25;;;;;;;11.55;8.20;;;9.90;99.90;;;;;;5011199;28;20037;-47
2022/11/05 04:55:51;;;;;;;13.30;7.78;;;9.90;99.90;;;;;;5010495;28;20553;-47
2022/11/05 04:58:16;;;;;;;9.23;7.10;;;9.90;99.90;;;;;;5011738;28;20032;-57
2022/11/05 05:00:42;;;;;;;9.35;6.97;;;9.90;99.90;;;;;;5011601;28;20113;-46
2022/11/05 05:03:07;;;;;;;7.68;5.93;;;9.80;99.90;;;;;;5011156;28;20026;-47
2022/11/05 05:05:33;;;;;;;9.77;6.78;;;9.80;99.90;;;;;;5011492;28;20032;-51
2022/11/05 05:08:03;;;;;;;10.15;6.20;;;9.80;99.90;;;;;;5011334;28;20513;-48
2022/11/05 05:10:28;;;;;;;8.00;6.32;;;9.80;99.90;;;;;;5011429;28;20036;-48
2022/11/05 05:12:54;;;;;;;7.78;6.30;;;9.80;99.90;;;;;;5011187;28;20112;-47
2022/11/05 05:15:19;;;;;;;9.20;6.75;;;9.80;99.90;;;;;;5011311;28;20026;-51
2022/11/05 05:17:50;;;;;;;8.07;6.28;;;9.70;99.90;;;;;;5011286;28;20033;-48
2022/11/05 05:23:00;;;;;;;9.70;7.10;;;9.80;99.90;;;;;;5010070;28;20559;-52
2022/11/05 05:25:25;;;;;;;8.85;7.10;;;9.80;99.90;;;;;;5066404;22;20049;-50
2022/11/05 05:27:51;;;;;;;9.95;6.03;;;9.70;99.90;;;;;;5052342;28;20071;-50
2022/11/05 05:30:16;;;;;;;14.18;6.18;;;9.70;99.90;;;;;;5054810;28;20029;-53
2022/11/05 05:32:42;;;;;;;8.60;5.85;;;9.70;99.90;;;;;;5053090;28;20382;-54
2022/11/05 05:35:08;;;;;;;9.95;5.47;;;9.70;99.90;;;;;;5068718;28;20059;-53
2022/11/05 05:37:34;;;;;;;8.43;5.47;;;9.70;99.90;;;;;;5074437;28;20025;-48
2022/11/05 05:39:59;;;;;;;10.98;5.15;;;9.60;99.90;;;;;;5074591;28;20529;-49
2022/11/05 05:42:25;;;;;;;4.85;4.00;;;9.60;99.90;;;;;;5074304;28;20020;-52
2022/11/05 05:44:50;;;;;;;6.93;4.15;;;9.60;99.90;;;;;;5074465;28;20021;-50
2022/11/05 05:47:16;;;;;;;6.20;4.30;;;9.60;99.90;;;;;;5074582;28;20025;-49
2022/11/05 05:49:41;;;;;;;9.20;4.60;;;9.60;99.90;;;;;;5074422;28;20104;-51
2022/11/05 05:52:07;;;;;;;12.38;5.40;;;9.70;99.90;;;;;;5074202;28;20021;-54
2022/11/05 05:54:32;;;;;;;8.98;5.00;;;9.60;99.90;;;;;;5074262;28;20021;-52
2022/11/05 05:56:58;;;;;;;12.25;4.85;;;9.70;99.90;;;;;;5074672;28;20499;-51
2022/11/05 05:59:23;;;;;;;10.27;5.82;;;9.70;99.90;;;;;;5074351;28;20446;-54
2022/11/05 06:01:49;;;;;;;13.15;6.32;;;9.70;99.90;;;;;;5073957;28;20489;-53
2022/11/05 06:04:14;;;;;;;8.73;5.25;;;9.70;99.90;;;;;;5073845;28;20025;-50
2022/11/05 06:06:40;;;;;;;7.68;5.40;;;9.70;99.90;;;;;;5074465;28;20025;-50
2022/11/05 06:09:05;;;;;;;12.95;6.25;;;9.70;99.90;;;;;;5074067;28;20068;-48
2022/11/05 06:11:31;;;;;;;9.85;6.07;;;9.60;99.90;;;;;;5074034;28;20058;-49
2022/11/05 06:13:57;;;;;;;11.70;6.65;;;9.60;99.90;;;;;;5074299;28;20024;-53
2022/11/05 06:16:22;;;;;;;12.30;6.50;;;9.60;99.90;;;;;;5073867;28;20219;-53
2022/11/05 06:18:48;;;;;;;10.70;6.05;;;9.70;99.90;;;;;;5074348;28;20092;-51
2022/11/05 06:21:15;;;;;;;10.85;7.00;;;9.70;99.90;;;;;;5074034;28;20032;-49
2022/11/05 06:23:43;;;;;;;11.80;6.68;;;9.70;99.90;;;;;;5073567;28;20481;-50
2022/11/05 06:26:14;;;;;;;18.67;7.55;;;9.60;99.90;;;;;;5072517;28;20036;-50
2022/11/05 06:28:41;;;;;;;11.32;7.93;;;9.60;99.90;;;;;;5073595;28;20522;-53
2022/11/05 06:31:07;;;;;;;17.42;7.25;;;9.60;99.90;;;;;;5073984;28;20025;-48
2022/11/05 06:33:33;;;;;;;12.63;7.05;;;9.60;99.90;;;;;;5073430;28;20659;-49
2022/11/05 06:36:00;;;;;;;13.77;7.20;;;9.60;99.90;;;;;;5073824;28;20024;-49
2022/11/05 06:38:25;;;;;;;13.43;7.63;;;9.60;99.90;;;;;;5073176;28;20028;-51
2022/11/05 06:40:51;;;;;;;8.55;5.75;;;9.60;99.90;;;;;;5072950;28;20448;-52
2022/11/05 06:43:16;;;;;;;9.88;5.63;;;9.60;99.90;;;;;;5073261;28;20384;-52
2022/11/05 06:45:42;;;;;;;10.60;5.57;;;9.60;99.90;;;;;;5073230;28;20028;-54
2022/11/05 06:48:08;;;;;;;7.70;4.93;;;9.60;99.90;;;;;;5073177;28;20113;-53
2022/11/05 06:50:33;;;;;;;9.20;5.05;;;9.60;99.90;;;;;;5072021;28;20028;-49
2022/11/05 06:53:01;;;;;;;6.75;4.65;;;9.60;99.90;;;;;;5073289;28;20496;-51
2022/11/05 06:55:30;;;;;;;9.00;5.13;;;9.70;99.90;;;;;;5073020;28;20060;-51
2022/11/05 06:57:56;;;;;;;8.80;5.72;;;9.70;99.90;;;;;;5073170;28;20025;-51
2022/11/05 07:00:22;;;;;;;14.70;6.38;;;9.70;99.90;;;;;;5073141;28;20031;-51
2022/11/05 07:02:48;;;;;;;11.88;6.65;;;9.70;99.90;;;;;;5073125;28;20073;-51
2022/11/05 07:05:15;;;;;;;12.68;7.07;;;9.70;99.90;;;;;;5072911;28;20047;-51
2022/11/05 07:07:42;;;;;;;10.85;6.78;;;9.60;99.90;;;;;;5071449;28;20036;-53
2022/11/05 07:10:11;;;;;;;11.63;8.52;;;9.60;99.90;;;;;;5072818;28;20027;-52
2022/11/05 07:12:37;;;;;;;15.75;8.85;;;9.60;99.90;;;;;;5072650;28;20480;-52
2022/11/05 07:15:03;;;;;;;12.10;8.20;;;9.60;99.90;;;;;;5072659;28;20039;-49
2022/11/05 07:17:28;;;;;;;12.32;8.23;;;9.70;99.90;;;;;;5072588;28;20035;-51
2022/11/05 07:19:54;;;;;;;13.77;8.85;;;9.70;99.90;;;;;;5072918;28;20070;-51
2022/11/05 07:22:19;;;;;;;16.38;9.00;;;9.80;99.90;;;;;;5072463;28;20053;-49
2022/11/05 07:24:46;;;;;;;22.67;9.65;;;9.70;99.90;;;;;;5073060;28;20028;-46
2022/11/05 07:27:12;;;;;;;14.48;9.20;;;9.70;99.90;;;;;;5072556;28;20040;-51
2022/11/05 07:29:37;;;;;;;15.50;8.60;;;9.80;99.90;;;;;;5072959;28;20391;-50
2022/11/05 07:32:03;;;;;;;18.88;9.77;;;9.80;99.90;;;;;;5072286;28;20017;-49
2022/11/05 07:34:29;;;;;;;15.27;8.95;;;9.80;99.90;;;;;;5072696;28;20023;-48
2022/11/05 07:36:55;;;;;;;19.30;9.20;;;9.80;99.90;;;;;;5071673;28;20269;-49
2022/11/05 07:39:20;;;;;;;16.98;9.07;;;9.90;99.90;;;;;;5072665;28;20024;-50
2022/11/05 07:41:46;;;;;;;14.65;9.52;;;9.80;99.90;;;;;;5072491;28;20416;-51
2022/11/05 07:44:13;;;;;;;14.57;9.50;;;9.80;99.90;;;;;;5063078;28;20096;-53
2022/11/05 07:46:39;;;;;;;15.23;10.13;;;9.80;99.90;;;;;;5072176;28;20024;-47
2022/11/05 07:49:05;;;;;;;16.75;10.20;;;9.90;99.90;;;;;;5067962;28;20029;-50
2022/11/05 07:51:30;;;;;;;14.48;10.13;;;9.90;99.90;;;;;;5062538;28;20028;-49
2022/11/05 07:53:56;;;;;;;14.55;9.55;;;10.00;99.90;;;;;;5071998;28;20420;-53
2022/11/05 07:56:22;;;;;;;15.77;10.35;;;9.90;99.90;;;;;;5054228;28;20029;-51
2022/11/05 07:58:47;;;;;;;13.63;9.55;;;10.00;99.90;;;;;;5058015;28;20012;-50
2022/11/05 08:01:13;;;;;;;21.80;11.35;;;10.10;99.90;;;;;;5072022;28;20095;-50
2022/11/05 08:03:38;;;;;;;16.40;10.35;;;10.00;99.90;;;;;;5071713;28;20078;-48
2022/11/05 08:06:04;;;;;;;14.88;10.00;;;10.20;99.90;;;;;;5072018;28;20435;-54
2022/11/05 08:08:30;;;;;;;16.90;9.88;;;10.30;99.90;;;;;;5071644;28;20032;-54
2022/11/05 08:11:05;;;;;;;15.73;10.80;;;10.40;99.90;;;;;;5070830;28;20679;-52
2022/11/05 08:13:31;;;;;;;17.63;10.48;;;10.40;99.90;;;;;;5069550;28;20024;-49
2022/11/05 08:15:57;;;;;;;16.38;9.82;;;10.30;99.90;;;;;;5071158;28;20025;-47
2022/11/05 08:18:22;;;;;;;15.80;11.05;;;10.40;99.90;;;;;;5063189;28;20028;-49
2022/11/05 08:20:48;;;;;;;15.88;10.68;;;10.50;99.90;;;;;;5070976;28;20050;-46
2022/11/05 08:23:14;;;;;;;21.92;10.55;;;11.00;99.90;;;;;;5070924;28;20081;-50
2022/11/05 08:25:40;;;;;;;19.63;10.10;;;10.70;99.90;;;;;;5071403;28;20048;-49
2022/11/05 08:28:11;;;;;;;19.92;10.95;;;10.70;99.90;;;;;;5071548;28;20556;-51
2022/11/05 08:30:36;;;;;;;14.05;9.35;;;10.80;99.90;;;;;;5071441;28;20399;-45
2022/11/05 08:33:05;;;;;;;18.27;10.32;;;10.90;99.90;;;;;;5071282;28;20028;-52
2022/11/05 08:35:32;;;;;;;15.95;10.15;;;11.10;99.90;;;;;;5071366;28;20627;-49
2022/11/05 08:38:01;;;;;;;16.95;10.43;;;11.20;99.90;;;;;;5071034;28;20554;-50
2022/11/05 08:40:28;;;;;;;13.50;10.15;;;11.30;99.90;;;;;;5071377;28;20602;-51
2022/11/05 08:42:56;;;;;;;14.07;9.35;;;11.40;99.90;;;;;;5071102;28;20025;-45
2022/11/05 08:45:21;;;;;;;20.80;9.57;;;11.50;99.90;;;;;;5071471;28;20025;-49
2022/11/05 08:47:47;;;;;;;14.32;9.18;;;11.70;99.90;;;;;;5071356;28;20488;-50
2022/11/05 08:50:12;;;;;;;11.52;8.60;;;11.90;99.90;;;;;;5071393;28;20036;-50
2022/11/05 08:52:41;;;;;;;14.70;8.07;;;12.40;99.90;;;;;;5070873;28;20073;-50
2022/11/05 08:55:06;;;;;;;14.02;7.20;;;12.90;99.90;;;;;;5071311;28;20036;-46
2022/11/05 08:57:32;;;;;;;15.18;7.10;;;14.00;99.90;;;;;;5071455;28;20020;-52
2022/11/05 08:59:57;;;;;;;13.27;6.95;;;15.00;99.90;;;;;;5071348;28;20027;-49
2022/11/05 09:02:23;;;;;;;10.38;6.80;;;16.00;99.90;;;;;;5071999;28;20095;-51
2022/11/05 09:04:48;;;;;;;6.68;5.60;;;16.80;99.90;;;;;;5075148;28;20464;-47
2022/11/05 09:07:14;;;;;;;12.82;5.95;;;17.70;99.90;;;;;;5075486;28;20089;-49
2022/11/05 09:09:40;;;;;;;9.55;6.50;;;17.80;99.90;;;;;;5074262;28;20377;-50
2022/11/05 09:12:06;;;;;;;21.45;12.38;;;17.60;99.90;;;;;;5075169;28;20035;-49
2022/11/05 09:14:31;;;;;;;11.43;6.70;;;16.90;99.90;;;;;;5075142;28;20387;-48
2022/11/05 09:16:57;;;;;;;31.83;19.60;;;16.00;99.90;;;;;;5075245;28;20032;-49
2022/11/05 09:19:22;;;;;;;9.40;6.38;;;15.40;99.90;;;;;;5075240;28;20021;-53
2022/11/05 09:21:48;;;;;;;10.48;5.57;;;14.90;99.90;;;;;;5075225;28;20093;-49
2022/11/05 09:24:13;;;;;;;10.35;5.72;;;14.50;99.90;;;;;;5074865;28;20044;-50
2022/11/05 09:26:39;;;;;;;12.30;5.93;;;14.40;99.90;;;;;;5075054;28;20404;-51
2022/11/05 09:29:04;;;;;;;8.60;6.10;;;14.30;99.90;;;;;;5074949;28;20392;-50
2022/11/05 09:31:30;;;;;;;13.60;4.90;;;14.20;99.90;;;;;;5075190;28;20033;-51
2022/11/05 09:33:55;;;;;;;5.15;3.88;;;14.10;99.90;;;;;;5074935;28;20035;-49
2022/11/05 09:36:21;;;;;;;8.07;4.55;;;14.60;99.90;;;;;;5074722;28;20063;-49
2022/11/05 09:38:46;;;;;;;7.90;4.68;;;15.20;99.90;;;;;;5074637;28;20424;-54
2022/11/05 09:41:43;;;;;;;9.10;4.32;;;15.80;99.90;;;;;;5074032;28;20092;-52
2022/11/05 09:44:17;;;;;;;8.15;4.20;;;16.40;99.90;;;;;;5060578;28;20033;-50
2022/11/05 09:47:03;;;;;;;6.78;4.13;;;16.40;99.90;;;;;;5073889;28;20028;-52
2022/11/05 09:49:40;;;;;;;8.77;4.93;;;16.10;99.90;;;;;;5074104;28;20029;-53
2022/11/05 09:52:13;;;;;;;7.82;4.47;;;16.30;99.90;;;;;;5063220;28;20387;-52
2022/11/05 09:54:39;;;;;;;8.07;4.10;;;16.90;99.90;;;;;;5063017;28;20087;-49
2022/11/05 09:57:12;;;;;;;7.45;4.43;;;17.10;99.90;;;;;;5070482;28;20033;-48
2022/11/05 09:59:51;;;;;;;10.60;4.28;;;17.20;99.90;;;;;;5071267;28;20074;-49
2022/11/05 10:02:26;;;;;;;8.25;3.88;;;17.20;99.90;;;;;;5070900;28;20090;-50
2022/11/05 10:04:59;;;;;;;6.47;4.05;;;17.90;99.90;;;;;;5072720;28;20062;-51
2022/11/05 10:07:28;;;;;;;7.47;4.32;;;18.70;99.90;;;;;;5073199;28;20032;-47
2022/11/05 10:09:59;;;;;;;7.78;3.58;;;19.30;98.80;;;;;;5073079;28;20017;-53
2022/11/05 10:12:30;;;;;;;9.38;4.20;;;19.70;97.50;;;;;;5073458;28;20025;-54
2022/11/05 10:15:05;;;;;;;6.28;3.95;;;19.40;97.00;;;;;;5072668;28;20078;-54
2022/11/05 10:17:34;;;;;;;5.80;3.85;;;19.10;97.40;;;;;;5064696;28;20029;-50
2022/11/05 10:20:36;;;;;;;10.82;4.63;;;18.70;98.10;;;;;;5053648;28;20029;-47
2022/11/05 10:23:10;;;;;;;6.03;5.38;;;18.00;99.00;;;;;;5053407;28;20017;-46
2022/11/05 10:25:39;;;;;;;8.17;5.27;;;17.40;99.90;;;;;;5053677;28;20364;-45
2022/11/05 10:28:06;;;;;;;8.13;4.78;;;17.10;99.90;;;;;;5053665;28;20021;-51
2022/11/05 10:30:32;;;;;;;9.50;4.68;;;16.70;99.90;;;;;;5053814;28;20399;-49
2022/11/05 10:33:02;;;;;;;15.48;9.48;;;16.60;99.90;;;;;;5053464;28;20070;-53
2022/11/05 10:35:31;;;;;;;12.25;7.05;;;16.50;99.90;;;;;;5059643;28;20077;-46
2022/11/05 10:37:56;;;;;;;13.23;4.57;;;16.40;99.90;;;;;;5066888;28;20027;-49
2022/11/05 10:40:22;;;;;;;7.95;3.85;;;16.20;99.90;;;;;;5073396;28;20024;-49
2022/11/05 10:42:53;;;;;;;6.13;4.07;;;16.00;99.90;;;;;;5057322;28;20032;-53
2022/11/05 10:45:24;;;;;;;7.22;3.95;;;15.90;99.90;;;;;;5073484;28;20107;-52
2022/11/05 10:48:05;;;;;;;9.57;4.30;;;15.60;99.90;;;;;;5056656;28;20029;-45
2022/11/05 10:50:31;;;;;;;8.25;4.10;;;15.50;99.90;;;;;;5053797;28;20025;-47
2022/11/05 10:53:04;;;;;;;7.38;4.57;;;15.30;99.90;;;;;;5055019;28;20163;-52
2022/11/05 10:55:40;;;;;;;8.43;4.30;;;14.90;99.90;;;;;;5073222;28;20028;-52
2022/11/05 10:58:14;;;;;;;11.68;5.55;;;14.80;99.90;;;;;;5073175;28;20031;-50
2022/11/05 11:00:41;;;;;;;9.45;4.63;;;14.60;99.90;;;;;;5071853;28;20021;-49
2022/11/05 11:03:45;;;;;;;9.38;4.90;;;14.60;99.90;;;;;;5072780;28;20020;-52
2022/11/05 11:06:28;;;;;;;7.85;4.85;;;14.50;99.90;;;;;;5073456;28;20605;-47
2022/11/05 11:09:02;;;;;;;7.82;4.50;;;14.50;99.90;;;;;;5073302;28;20396;-48
2022/11/05 11:11:55;;;;;;;10.43;4.85;;;14.50;99.90;;;;;;5073010;28;20031;-48
2022/11/05 11:14:21;;;;;;;9.43;4.63;;;14.20;99.90;;;;;;5061792;28;20650;-51
2022/11/05 11:16:50;;;;;;;6.80;4.75;;;14.00;99.90;;;;;;5062472;28;20107;-49
2022/11/05 11:19:32;;;;;;;11.60;5.22;;;13.90;99.90;;;;;;5062921;28;20112;-49
2022/11/05 11:22:04;;;;;;;8.43;3.60;;;13.90;99.90;;;;;;5062687;28;20036;-48
2022/11/05 11:24:48;;;;;;;14.40;4.40;;;13.80;99.90;;;;;;5085837;23;20040;-46
2022/11/05 11:27:34;;;;;;;7.63;3.65;;;13.70;99.90;;;;;;5061911;28;20081;-50
2022/11/05 11:30:01;;;;;;;10.20;4.53;;;13.50;99.90;;;;;;5061174;28;20033;-51
2022/11/05 11:32:38;;;;;;;7.82;4.18;;;13.30;99.90;;;;;;5060697;28;20056;-47
2022/11/05 11:35:06;;;;;;;5.90;4.20;;;13.30;99.90;;;;;;5077969;28;20038;-49
2022/11/05 11:37:40;;;;;;;6.93;3.75;;;13.20;99.90;;;;;;5081864;28;20035;-50
2022/11/05 11:40:16;;;;;;;11.38;3.83;;;13.20;99.90;;;;;;5081180;28;20020;-49
2022/11/05 11:42:47;;;;;;;4.97;3.65;;;13.30;99.90;;;;;;5079705;28;20108;-50
2022/11/05 11:45:21;;;;;;;7.82;4.18;;;13.50;99.90;;;;;;5087702;28;20043;-47
2022/11/05 11:47:49;;;;;;;5.07;3.97;;;13.50;99.90;;;;;;5090346;28;20507;-51
2022/11/05 11:50:30;;;;;;;7.93;3.75;;;13.60;99.90;;;;;;5091019;28;20036;-49
2022/11/05 11:53:16;;;;;;;7.03;3.60;;;13.60;99.90;;;;;;5091377;28;20403;-49
2022/11/05 11:55:54;;;;;;;8.10;3.75;;;13.70;99.90;;;;;;5086347;28;20039;-48
2022/11/05 11:58:20;;;;;;;5.75;3.53;;;13.70;99.90;;;;;;5071423;28;20048;-51
2022/11/05 12:01:00;;;;;;;6.85;3.83;;;13.60;99.90;;;;;;5086429;28;20441;-46
2022/11/05 12:03:55;;;;;;;8.35;4.35;;;13.50;99.90;;;;;;5085531;28;20048;-48
2022/11/05 12:06:26;;;;;;;7.28;3.13;;;13.50;99.90;;;;;;5078999;28;20434;-48
2022/11/05 12:08:59;;;;;;;14.80;3.67;;;13.50;99.90;;;;;;5085512;28;20073;-50
2022/11/05 12:11:33;;;;;;;5.63;2.72;;;13.30;99.90;;;;;;5083706;28;20026;-51
2022/11/05 12:14:27;;;;;;;4.85;3.08;;;13.20;99.90;;;;;;5081550;28;20142;-50
2022/11/05 12:17:01;;;;;;;4.20;2.63;;;13.20;99.90;;;;;;5084430;28;20042;-52
2022/11/05 12:19:38;;;;;;;5.20;3.00;;;13.20;99.90;;;;;;5083508;28;20051;-49
2022/11/05 12:22:19;;;;;;;12.13;4.20;;;13.10;99.90;;;;;;5090003;28;20487;-46
2022/11/05 12:24:59;;;;;;;9.75;3.72;;;13.00;99.90;;;;;;5059480;28;1034214;-50
2022/11/05 12:27:38;;;;;;;8.48;4.88;;;13.00;99.90;;;;;;5090621;28;20488;-49
2022/11/05 12:30:10;;;;;;;4.15;2.88;;;12.90;99.90;;;;;;5091603;28;20569;-51
2022/11/05 12:32:39;;;;;;;27.35;17.55;;;12.90;99.90;;;;;;5090602;28;20032;-47
2022/11/05 12:35:25;;;;;;;38.72;22.48;;;12.80;99.90;;;;;;5091301;28;20016;-46
2022/11/05 12:38:28;;;;;;;7.20;2.83;;;12.80;99.90;;;;;;5100981;28;20052;-49
2022/11/05 12:41:05;;;;;;;5.05;2.30;;;12.80;99.90;;;;;;5071211;28;20097;-45
2022/11/05 12:43:56;;;;;;;7.15;2.13;;;12.80;99.90;;;;;;5083702;28;20509;-50
2022/11/05 12:46:52;;;;;;;6.60;2.00;;;12.90;99.90;;;;;;5091242;28;20028;-48
2022/11/05 12:49:36;;;;;;;;;;;12.80;99.90;;;;;;5071839;28;20395;-48
2022/11/05 12:52:19;;;;;;;4.70;1.90;;;12.90;99.90;;;;;;5070869;28;20344;-46
2022/11/05 12:55:07;;;;;;;3.35;1.80;;;12.90;99.90;;;;;;5071328;28;20455;-46
2022/11/05 12:57:37;;;;;;;5.00;2.10;;;12.90;99.90;;;;;;5077267;28;20106;-46
2022/11/05 13:00:20;;;;;;;7.65;1.90;;;12.80;99.90;;;;;;5091492;28;20024;-47
2022/11/05 13:03:12;;;;;;;5.60;1.70;;;12.80;99.90;;;;;;5089775;28;20027;-47
2022/11/05 13:05:39;;;;;;;5.95;2.20;;;12.70;99.90;;;;;;5082323;28;20036;-46
2022/11/05 13:08:17;;;;;;;4.80;1.70;;;12.80;99.90;;;;;;5091089;28;20031;-47
2022/11/05 13:10:52;;;;;;;2.28;1.63;;;12.80;99.90;;;;;;5091182;28;20024;-48
2022/11/05 13:13:36;;;;;;;2.05;1.42;;;13.00;99.90;;;;;;5090079;28;20027;-48
2022/11/05 13:16:23;;;;;;;2.72;1.60;;;13.10;99.90;;;;;;5090902;28;20483;-53
2022/11/05 13:18:58;;;;;;;5.88;2.10;;;13.00;99.90;;;;;;5091834;28;20046;-47
2022/11/05 13:21:28;;;;;;;2.65;1.63;;;13.10;99.90;;;;;;5091024;28;20020;-48
2022/11/05 13:24:08;;;;;;;6.85;1.60;;;13.10;99.90;;;;;;5091125;28;20024;-49
2022/11/05 13:26:59;;;;;;;5.07;1.73;;;13.00;99.90;;;;;;5091111;28;20028;-50
2022/11/05 13:29:30;;;;;;;178.60;124.20;;;13.10;99.90;;;;;;5090773;28;20059;-48
2022/11/05 13:32:07;;;;;;;58.40;37.58;;;13.10;99.90;;;;;;5091061;28;20450;-46
2022/11/05 13:34:32;;;;;;;20.08;7.15;;;13.20;99.90;;;;;;5091933;28;20036;-47
2022/11/05 13:40:02;;;;;;;3.95;1.95;;;13.20;99.90;;;;;;5091206;28;20525;-47
2022/11/05 13:42:48;;;;;;;2.85;1.90;;;13.10;99.90;;;;;;5090787;28;20403;-49
2022/11/05 13:45:20;;;;;;;14.65;2.30;;;13.00;99.90;;;;;;5091513;28;20020;-49
2022/11/05 13:48:11;;;;;;;5.68;1.77;;;13.00;99.90;;;;;;5090013;28;20020;-52
2022/11/05 13:51:18;;;;;;;4.05;1.70;;;12.90;99.90;;;;;;5093614;28;20064;-48
2022/11/05 13:54:21;;;;;;;4.93;1.67;;;12.80;99.90;;;;;;5094347;28;20028;-47